Decoded Metar for BKPR (PRISHTINA in SERBIA) (IATA:N/A) | Meteo·Mobile Aviation Weather
aviador You're here:

BKPR Decoded Metar

PRISHTINA in SERBIA
Report Time2019-03-21 22:00:00
UTC Time2019-03-22 14:00:16
Flight Rules Old
Wind330° at 04 kt
W.Decomp.*RWY 35: 3.7 kt HW 1.5 kt LCW
W.Rank330° ranks 6
Current wind is below 330° avg. (6.9)
Visibility9999 m
Phenomena:N/A
Clouds:N/A
Expected CloudBase > 3,200 ft AGL from Temp-Dew spread
CeilingNone
Temp06°C (ISA -5)
Dew Point-2°C (57% RH)
AAT2.3°C
QNH1031 hPa
Density Alt732 ft
Elevation1,890 ft
Report Wrong Elevation
Raw Report
METAR BKPR 212200Z 33004KT CAVOK 06/M02 Q1031 NOSIG RMK 17010095 =

Extra information for BKPR:More info

Metar Taf Metar & Taf Last 4 Metars F.Rules Stats Wind Profile Meteogram Temp Stats Airport Information Weather charts Add Link Nearby VenuesMetar ALERT Operation Metar Decoded Social comments